sensor_id;sensor_type;location;lat;lon;timestamp;P1;durP1;ratioP1;P2;durP2;ratioP2
15112;SDS011;7657;50.140;7.076;2023-08-01T00:00:19;3.45;;;1.20;;
15112;SDS011;7657;50.140;7.076;2023-08-01T00:02:46;1.95;;;0.95;;
15112;SDS011;7657;50.140;7.076;2023-08-01T00:05:13;1.30;;;1.20;;
15112;SDS011;7657;50.140;7.076;2023-08-01T00:07:40;3.30;;;1.13;;
15112;SDS011;7657;50.140;7.076;2023-08-01T00:10:08;1.20;;;1.10;;
15112;SDS011;7657;50.140;7.076;2023-08-01T00:12:35;1.83;;;0.82;;
15112;SDS011;7657;50.140;7.076;2023-08-01T00:15:04;1.30;;;0.90;;
15112;SDS011;7657;50.140;7.076;2023-08-01T00:17:32;1.83;;;1.23;;
15112;SDS011;7657;50.140;7.076;2023-08-01T00:19:59;1.25;;;1.02;;
15112;SDS011;7657;50.140;7.076;2023-08-01T00:22:27;2.97;;;0.90;;
15112;SDS011;7657;50.140;7.076;2023-08-01T00:24:54;2.38;;;0.93;;
15112;SDS011;7657;50.140;7.076;2023-08-01T00:27:21;0.90;;;0.90;;
15112;SDS011;7657;50.140;7.076;2023-08-01T00:29:47;1.10;;;0.80;;
15112;SDS011;7657;50.140;7.076;2023-08-01T00:32:16;0.95;;;0.80;;
15112;SDS011;7657;50.140;7.076;2023-08-01T00:34:43;2.15;;;1.00;;
15112;SDS011;7657;50.140;7.076;2023-08-01T00:37:10;1.20;;;0.98;;
15112;SDS011;7657;50.140;7.076;2023-08-01T00:39:38;1.13;;;0.90;;
15112;SDS011;7657;50.140;7.076;2023-08-01T00:42:05;1.02;;;0.90;;
15112;SDS011;7657;50.140;7.076;2023-08-01T00:44:32;1.67;;;1.25;;
15112;SDS011;7657;50.140;7.076;2023-08-01T00:46:59;2.95;;;1.10;;
15112;SDS011;7657;50.140;7.076;2023-08-01T00:49:27;2.42;;;1.20;;
15112;SDS011;7657;50.140;7.076;2023-08-01T00:51:54;2.17;;;1.17;;
15112;SDS011;7657;50.140;7.076;2023-08-01T00:54:21;1.52;;;1.23;;
15112;SDS011;7657;50.140;7.076;2023-08-01T00:56:48;2.33;;;1.35;;
15112;SDS011;7657;50.140;7.076;2023-08-01T00:59:16;1.52;;;1.33;;
15112;SDS011;7657;50.140;7.076;2023-08-01T01:01:42;1.30;;;1.10;;
15112;SDS011;7657;50.140;7.076;2023-08-01T01:04:09;3.08;;;1.30;;
15112;SDS011;7657;50.140;7.076;2023-08-01T01:06:39;3.10;;;1.50;;
15112;SDS011;7657;50.140;7.076;2023-08-01T01:09:14;1.50;;;1.23;;
15112;SDS011;7657;50.140;7.076;2023-08-01T01:11:42;2.15;;;1.20;;
15112;SDS011;7657;50.140;7.076;2023-08-01T01:14:08;1.75;;;1.20;;
15112;SDS011;7657;50.140;7.076;2023-08-01T01:16:35;1.27;;;1.17;;
15112;SDS011;7657;50.140;7.076;2023-08-01T01:19:05;3.20;;;1.30;;
15112;SDS011;7657;50.140;7.076;2023-08-01T01:21:34;1.25;;;1.15;;
15112;SDS011;7657;50.140;7.076;2023-08-01T01:24:03;2.53;;;1.50;;
15112;SDS011;7657;50.140;7.076;2023-08-01T01:26:33;1.73;;;1.17;;
15112;SDS011;7657;50.140;7.076;2023-08-01T01:29:00;1.38;;;1.27;;
15112;SDS011;7657;50.140;7.076;2023-08-01T01:31:28;2.65;;;1.50;;
15112;SDS011;7657;50.140;7.076;2023-08-01T01:33:56;1.92;;;1.38;;
15112;SDS011;7657;50.140;7.076;2023-08-01T01:36:23;1.20;;;1.10;;
15112;SDS011;7657;50.140;7.076;2023-08-01T01:38:52;1.45;;;1.35;;
15112;SDS011;7657;50.140;7.076;2023-08-01T01:41:19;1.10;;;0.98;;
15112;SDS011;7657;50.140;7.076;2023-08-01T01:43:45;1.15;;;0.88;;
15112;SDS011;7657;50.140;7.076;2023-08-01T01:46:12;0.80;;;0.80;;
15112;SDS011;7657;50.140;7.076;2023-08-01T01:48:39;0.80;;;0.80;;
15112;SDS011;7657;50.140;7.076;2023-08-01T01:51:07;0.82;;;0.75;;
15112;SDS011;7657;50.140;7.076;2023-08-01T01:53:34;1.98;;;0.82;;
15112;SDS011;7657;50.140;7.076;2023-08-01T01:56:02;1.17;;;0.90;;
15112;SDS011;7657;50.140;7.076;2023-08-01T01:58:29;1.20;;;0.82;;
15112;SDS011;7657;50.140;7.076;2023-08-01T02:00:56;1.25;;;0.80;;
15112;SDS011;7657;50.140;7.076;2023-08-01T02:03:23;0.77;;;0.77;;
15112;SDS011;7657;50.140;7.076;2023-08-01T02:05:50;0.88;;;0.77;;
15112;SDS011;7657;50.140;7.076;2023-08-01T02:08:17;0.95;;;0.80;;
15112;SDS011;7657;50.140;7.076;2023-08-01T02:10:43;1.48;;;0.70;;
15112;SDS011;7657;50.140;7.076;2023-08-01T02:13:12;1.05;;;0.90;;
15112;SDS011;7657;50.140;7.076;2023-08-01T02:15:39;1.10;;;1.05;;
15112;SDS011;7657;50.140;7.076;2023-08-01T02:18:06;1.58;;;0.95;;
15112;SDS011;7657;50.140;7.076;2023-08-01T02:20:32;2.35;;;0.77;;
15112;SDS011;7657;50.140;7.076;2023-08-01T02:22:59;0.98;;;0.88;;
15112;SDS011;7657;50.140;7.076;2023-08-01T02:25:26;1.42;;;0.80;;
15112;SDS011;7657;50.140;7.076;2023-08-01T02:27:53;0.68;;;0.68;;
15112;SDS011;7657;50.140;7.076;2023-08-01T02:30:21;0.68;;;0.68;;
15112;SDS011;7657;50.140;7.076;2023-08-01T02:32:48;0.80;;;0.80;;
15112;SDS011;7657;50.140;7.076;2023-08-01T02:35:15;1.20;;;0.70;;
15112;SDS011;7657;50.140;7.076;2023-08-01T02:37:42;2.35;;;0.80;;
15112;SDS011;7657;50.140;7.076;2023-08-01T02:40:09;1.65;;;0.82;;
15112;SDS011;7657;50.140;7.076;2023-08-01T02:42:37;2.70;;;0.73;;
15112;SDS011;7657;50.140;7.076;2023-08-01T02:45:04;1.17;;;0.85;;
15112;SDS011;7657;50.140;7.076;2023-08-01T02:47:33;1.20;;;0.85;;
15112;SDS011;7657;50.140;7.076;2023-08-01T02:50:00;1.10;;;0.88;;
15112;SDS011;7657;50.140;7.076;2023-08-01T02:52:27;0.60;;;0.60;;
15112;SDS011;7657;50.140;7.076;2023-08-01T02:54:53;1.08;;;0.70;;
15112;SDS011;7657;50.140;7.076;2023-08-01T02:57:20;1.13;;;0.55;;
15112;SDS011;7657;50.140;7.076;2023-08-01T02:59:47;0.70;;;0.70;;
15112;SDS011;7657;50.140;7.076;2023-08-01T03:02:14;3.17;;;0.88;;
15112;SDS011;7657;50.140;7.076;2023-08-01T03:04:42;0.52;;;0.52;;
15112;SDS011;7657;50.140;7.076;2023-08-01T03:07:09;0.50;;;0.50;;
15112;SDS011;7657;50.140;7.076;2023-08-01T03:09:36;0.77;;;0.70;;
15112;SDS011;7657;50.140;7.076;2023-08-01T03:12:03;0.68;;;0.50;;
15112;SDS011;7657;50.140;7.076;2023-08-01T03:14:30;0.82;;;0.68;;
15112;SDS011;7657;50.140;7.076;2023-08-01T03:16:57;0.73;;;0.63;;
15112;SDS011;7657;50.140;7.076;2023-08-01T03:19:24;0.50;;;0.50;;
15112;SDS011;7657;50.140;7.076;2023-08-01T03:21:52;1.35;;;0.47;;
15112;SDS011;7657;50.140;7.076;2023-08-01T03:24:19;0.68;;;0.40;;
15112;SDS011;7657;50.140;7.076;2023-08-01T03:26:46;0.57;;;0.57;;
15112;SDS011;7657;50.140;7.076;2023-08-01T03:29:13;0.50;;;0.50;;
15112;SDS011;7657;50.140;7.076;2023-08-01T03:31:40;1.60;;;0.40;;
15112;SDS011;7657;50.140;7.076;2023-08-01T03:34:07;0.55;;;0.35;;
15112;SDS011;7657;50.140;7.076;2023-08-01T03:36:34;2.72;;;0.55;;
15112;SDS011;7657;50.140;7.076;2023-08-01T03:39:03;0.90;;;0.30;;
15112;SDS011;7657;50.140;7.076;2023-08-01T03:41:31;0.55;;;0.50;;
15112;SDS011;7657;50.140;7.076;2023-08-01T03:43:58;1.75;;;0.30;;
15112;SDS011;7657;50.140;7.076;2023-08-01T03:46:25;0.47;;;0.30;;
15112;SDS011;7657;50.140;7.076;2023-08-01T03:48:52;0.28;;;0.28;;
15112;SDS011;7657;50.140;7.076;2023-08-01T03:51:19;1.08;;;0.20;;
15112;SDS011;7657;50.140;7.076;2023-08-01T03:53:46;0.10;;;0.10;;
15112;SDS011;7657;50.140;7.076;2023-08-01T03:56:14;0.20;;;0.20;;
15112;SDS011;7657;50.140;7.076;2023-08-01T03:58:41;0.10;;;0.10;;
15112;SDS011;7657;50.140;7.076;2023-08-01T04:01:08;0.10;;;0.10;;
15112;SDS011;7657;50.140;7.076;2023-08-01T04:03:34;0.10;;;0.10;;
15112;SDS011;7657;50.140;7.076;2023-08-01T04:06:01;0.13;;;0.13;;
15112;SDS011;7657;50.140;7.076;2023-08-01T04:08:28;0.10;;;0.10;;
15112;SDS011;7657;50.140;7.076;2023-08-01T04:10:55;0.20;;;0.20;;
15112;SDS011;7657;50.140;7.076;2023-08-01T04:13:23;0.65;;;0.10;;
15112;SDS011;7657;50.140;7.076;2023-08-01T04:15:50;0.10;;;0.10;;
15112;SDS011;7657;50.140;7.076;2023-08-01T04:18:17;0.55;;;0.10;;
15112;SDS011;7657;50.140;7.076;2023-08-01T04:20:44;0.52;;;0.10;;
15112;SDS011;7657;50.140;7.076;2023-08-01T04:23:12;0.10;;;0.10;;
15112;SDS011;7657;50.140;7.076;2023-08-01T04:25:40;1.10;;;0.38;;
15112;SDS011;7657;50.140;7.076;2023-08-01T04:28:07;0.38;;;0.20;;
15112;SDS011;7657;50.140;7.076;2023-08-01T04:30:35;0.00;;;0.00;;
15112;SDS011;7657;50.140;7.076;2023-08-01T04:33:03;0.08;;;0.08;;
15112;SDS011;7657;50.140;7.076;2023-08-01T04:35:30;0.00;;;0.00;;
15112;SDS011;7657;50.140;7.076;2023-08-01T04:37:57;0.63;;;0.10;;
15112;SDS011;7657;50.140;7.076;2023-08-01T04:40:24;0.10;;;0.10;;
15112;SDS011;7657;50.140;7.076;2023-08-01T04:42:51;0.00;;;0.00;;
15112;SDS011;7657;50.140;7.076;2023-08-01T04:45:18;0.10;;;0.10;;
15112;SDS011;7657;50.140;7.076;2023-08-01T04:47:47;0.00;;;0.00;;
15112;SDS011;7657;50.140;7.076;2023-08-01T04:50:14;0.25;;;0.10;;
15112;SDS011;7657;50.140;7.076;2023-08-01T04:52:40;0.20;;;0.10;;
15112;SDS011;7657;50.140;7.076;2023-08-01T04:55:07;0.00;;;0.00;;
15112;SDS011;7657;50.140;7.076;2023-08-01T04:57:34;0.13;;;0.13;;
15112;SDS011;7657;50.140;7.076;2023-08-01T05:00:01;0.10;;;0.10;;
15112;SDS011;7657;50.140;7.076;2023-08-01T05:02:29;0.10;;;0.10;;
15112;SDS011;7657;50.140;7.076;2023-08-01T05:04:57;0.20;;;0.10;;
15112;SDS011;7657;50.140;7.076;2023-08-01T05:07:24;0.75;;;0.17;;
15112;SDS011;7657;50.140;7.076;2023-08-01T05:09:51;0.10;;;0.05;;
15112;SDS011;7657;50.140;7.076;2023-08-01T05:12:18;0.10;;;0.10;;
15112;SDS011;7657;50.140;7.076;2023-08-01T05:14:45;1.20;;;0.10;;
15112;SDS011;7657;50.140;7.076;2023-08-01T05:17:12;0.05;;;0.05;;
15112;SDS011;7657;50.140;7.076;2023-08-01T05:19:38;0.10;;;0.10;;
15112;SDS011;7657;50.140;7.076;2023-08-01T05:22:07;1.10;;;0.20;;
15112;SDS011;7657;50.140;7.076;2023-08-01T05:24:34;0.15;;;0.15;;
15112;SDS011;7657;50.140;7.076;2023-08-01T05:27:00;0.40;;;0.32;;
15112;SDS011;7657;50.140;7.076;2023-08-01T05:29:27;0.20;;;0.20;;
15112;SDS011;7657;50.140;7.076;2023-08-01T05:31:54;0.20;;;0.20;;
15112;SDS011;7657;50.140;7.076;2023-08-01T05:34:21;0.32;;;0.32;;
15112;SDS011;7657;50.140;7.076;2023-08-01T05:36:48;0.30;;;0.28;;
15112;SDS011;7657;50.140;7.076;2023-08-01T05:39:16;0.40;;;0.40;;
15112;SDS011;7657;50.140;7.076;2023-08-01T05:41:43;0.60;;;0.40;;
15112;SDS011;7657;50.140;7.076;2023-08-01T05:44:10;0.25;;;0.25;;
15112;SDS011;7657;50.140;7.076;2023-08-01T05:46:37;0.45;;;0.40;;
15112;SDS011;7657;50.140;7.076;2023-08-01T05:49:04;0.20;;;0.20;;
15112;SDS011;7657;50.140;7.076;2023-08-01T05:51:31;0.20;;;0.20;;
15112;SDS011;7657;50.140;7.076;2023-08-01T05:53:58;0.85;;;0.30;;
15112;SDS011;7657;50.140;7.076;2023-08-01T05:56:26;0.90;;;0.57;;
15112;SDS011;7657;50.140;7.076;2023-08-01T05:58:53;0.50;;;0.50;;
15112;SDS011;7657;50.140;7.076;2023-08-01T06:01:20;0.75;;;0.60;;
15112;SDS011;7657;50.140;7.076;2023-08-01T06:03:46;0.85;;;0.85;;
15112;SDS011;7657;50.140;7.076;2023-08-01T06:06:13;1.60;;;0.88;;
15112;SDS011;7657;50.140;7.076;2023-08-01T06:08:40;0.88;;;0.88;;
15112;SDS011;7657;50.140;7.076;2023-08-01T06:11:07;1.25;;;1.10;;
15112;SDS011;7657;50.140;7.076;2023-08-01T06:13:35;1.67;;;0.98;;
15112;SDS011;7657;50.140;7.076;2023-08-01T06:16:02;1.00;;;0.90;;
15112;SDS011;7657;50.140;7.076;2023-08-01T06:18:29;0.95;;;0.85;;
15112;SDS011;7657;50.140;7.076;2023-08-01T06:20:57;1.20;;;1.10;;
15112;SDS011;7657;50.140;7.076;2023-08-01T06:23:24;1.10;;;1.02;;
15112;SDS011;7657;50.140;7.076;2023-08-01T06:25:51;1.33;;;1.30;;
15112;SDS011;7657;50.140;7.076;2023-08-01T06:28:17;1.73;;;1.63;;
15112;SDS011;7657;50.140;7.076;2023-08-01T06:30:46;1.80;;;1.30;;
15112;SDS011;7657;50.140;7.076;2023-08-01T06:33:13;2.65;;;2.10;;
15112;SDS011;7657;50.140;7.076;2023-08-01T06:35:39;4.80;;;1.55;;
15112;SDS011;7657;50.140;7.076;2023-08-01T06:38:06;1.52;;;1.40;;
15112;SDS011;7657;50.140;7.076;2023-08-01T06:40:33;1.80;;;1.70;;
15112;SDS011;7657;50.140;7.076;2023-08-01T06:43:00;1.58;;;1.48;;
15112;SDS011;7657;50.140;7.076;2023-08-01T06:45:27;1.60;;;1.35;;
15112;SDS011;7657;50.140;7.076;2023-08-01T06:47:55;1.77;;;1.48;;
15112;SDS011;7657;50.140;7.076;2023-08-01T06:50:22;3.72;;;1.60;;
15112;SDS011;7657;50.140;7.076;2023-08-01T06:52:49;3.88;;;2.13;;
15112;SDS011;7657;50.140;7.076;2023-08-01T06:55:16;1.38;;;1.35;;
15112;SDS011;7657;50.140;7.076;2023-08-01T06:57:43;1.48;;;1.38;;
15112;SDS011;7657;50.140;7.076;2023-08-01T07:00:10;1.35;;;1.25;;
15112;SDS011;7657;50.140;7.076;2023-08-01T07:02:37;1.50;;;1.40;;
15112;SDS011;7657;50.140;7.076;2023-08-01T07:05:06;1.98;;;1.55;;
15112;SDS011;7657;50.140;7.076;2023-08-01T07:07:33;2.70;;;1.50;;
15112;SDS011;7657;50.140;7.076;2023-08-01T07:10:00;1.58;;;1.48;;
15112;SDS011;7657;50.140;7.076;2023-08-01T07:12:27;2.42;;;1.80;;
15112;SDS011;7657;50.140;7.076;2023-08-01T07:14:53;3.80;;;1.73;;
15112;SDS011;7657;50.140;7.076;2023-08-01T07:17:20;2.33;;;1.55;;
15112;SDS011;7657;50.140;7.076;2023-08-01T07:19:46;4.95;;;1.90;;
15112;SDS011;7657;50.140;7.076;2023-08-01T07:22:15;4.60;;;2.03;;
15112;SDS011;7657;50.140;7.076;2023-08-01T07:24:42;3.47;;;1.80;;
15112;SDS011;7657;50.140;7.076;2023-08-01T07:27:09;5.35;;;1.92;;
15112;SDS011;7657;50.140;7.076;2023-08-01T07:29:37;3.13;;;1.80;;
15112;SDS011;7657;50.140;7.076;2023-08-01T07:32:04;3.28;;;1.80;;
15112;SDS011;7657;50.140;7.076;2023-08-01T07:34:31;2.35;;;1.80;;
15112;SDS011;7657;50.140;7.076;2023-08-01T07:36:58;4.60;;;2.03;;
15112;SDS011;7657;50.140;7.076;2023-08-01T07:39:27;3.38;;;2.08;;
15112;SDS011;7657;50.140;7.076;2023-08-01T07:41:54;4.18;;;2.20;;
15112;SDS011;7657;50.140;7.076;2023-08-01T07:44:22;2.25;;;1.90;;
15112;SDS011;7657;50.140;7.076;2023-08-01T07:46:49;5.75;;;1.90;;
15112;SDS011;7657;50.140;7.076;2023-08-01T07:49:15;3.38;;;1.90;;
15112;SDS011;7657;50.140;7.076;2023-08-01T07:51:43;3.10;;;1.77;;
15112;SDS011;7657;50.140;7.076;2023-08-01T07:54:10;1.92;;;1.63;;
15112;SDS011;7657;50.140;7.076;2023-08-01T07:56:38;1.70;;;1.58;;
15112;SDS011;7657;50.140;7.076;2023-08-01T07:59:05;2.10;;;1.88;;
15112;SDS011;7657;50.140;7.076;2023-08-01T08:01:32;1.73;;;1.42;;
15112;SDS011;7657;50.140;7.076;2023-08-01T08:03:58;2.10;;;1.88;;
15112;SDS011;7657;50.140;7.076;2023-08-01T08:06:25;1.75;;;1.60;;
15112;SDS011;7657;50.140;7.076;2023-08-01T08:08:52;2.33;;;1.80;;
15112;SDS011;7657;50.140;7.076;2023-08-01T08:11:19;3.38;;;1.45;;
15112;SDS011;7657;50.140;7.076;2023-08-01T08:13:47;1.70;;;1.55;;
15112;SDS011;7657;50.140;7.076;2023-08-01T08:16:14;4.30;;;1.65;;
15112;SDS011;7657;50.140;7.076;2023-08-01T08:18:41;1.42;;;1.30;;
15112;SDS011;7657;50.140;7.076;2023-08-01T08:21:08;2.72;;;1.75;;
15112;SDS011;7657;50.140;7.076;2023-08-01T08:23:35;3.03;;;2.10;;
15112;SDS011;7657;50.140;7.076;2023-08-01T08:26:02;2.90;;;1.88;;
15112;SDS011;7657;50.140;7.076;2023-08-01T08:28:30;1.98;;;1.80;;
15112;SDS011;7657;50.140;7.076;2023-08-01T08:30:59;3.33;;;2.08;;
15112;SDS011;7657;50.140;7.076;2023-08-01T08:33:26;4.13;;;1.73;;
15112;SDS011;7657;50.140;7.076;2023-08-01T08:35:53;4.43;;;1.80;;
15112;SDS011;7657;50.140;7.076;2023-08-01T08:38:20;2.60;;;1.80;;
15112;SDS011;7657;50.140;7.076;2023-08-01T08:40:50;2.78;;;1.45;;
15112;SDS011;7657;50.140;7.076;2023-08-01T08:43:23;4.60;;;2.15;;
15112;SDS011;7657;50.140;7.076;2023-08-01T08:45:52;2.78;;;1.40;;
15112;SDS011;7657;50.140;7.076;2023-08-01T08:48:24;3.13;;;1.58;;
15112;SDS011;7657;50.140;7.076;2023-08-01T08:50:52;1.65;;;1.55;;
15112;SDS011;7657;50.140;7.076;2023-08-01T08:53:23;3.55;;;1.60;;
15112;SDS011;7657;50.140;7.076;2023-08-01T08:55:50;3.70;;;2.00;;
15112;SDS011;7657;50.140;7.076;2023-08-01T08:58:17;3.08;;;1.73;;
15112;SDS011;7657;50.140;7.076;2023-08-01T09:00:45;3.50;;;1.75;;
15112;SDS011;7657;50.140;7.076;2023-08-01T09:03:12;2.50;;;2.10;;
15112;SDS011;7657;50.140;7.076;2023-08-01T09:05:43;3.25;;;1.80;;
15112;SDS011;7657;50.140;7.076;2023-08-01T09:08:15;2.97;;;1.83;;
15112;SDS011;7657;50.140;7.076;2023-08-01T09:10:44;3.50;;;1.90;;
15112;SDS011;7657;50.140;7.076;2023-08-01T09:13:11;3.28;;;1.83;;
15112;SDS011;7657;50.140;7.076;2023-08-01T09:15:38;6.22;;;1.75;;
15112;SDS011;7657;50.140;7.076;2023-08-01T09:18:07;3.75;;;1.73;;
15112;SDS011;7657;50.140;7.076;2023-08-01T09:20:40;2.30;;;1.85;;
15112;SDS011;7657;50.140;7.076;2023-08-01T09:23:08;3.45;;;1.70;;
15112;SDS011;7657;50.140;7.076;2023-08-01T09:25:36;3.20;;;1.70;;
15112;SDS011;7657;50.140;7.076;2023-08-01T09:28:14;4.95;;;1.92;;
15112;SDS011;7657;50.140;7.076;2023-08-01T09:30:45;2.97;;;1.85;;
15112;SDS011;7657;50.140;7.076;2023-08-01T09:33:12;3.30;;;1.80;;
15112;SDS011;7657;50.140;7.076;2023-08-01T09:35:41;3.33;;;1.95;;
15112;SDS011;7657;50.140;7.076;2023-08-01T09:38:09;3.03;;;1.80;;
15112;SDS011;7657;50.140;7.076;2023-08-01T09:40:37;3.97;;;2.40;;
15112;SDS011;7657;50.140;7.076;2023-08-01T09:43:03;2.28;;;1.95;;
15112;SDS011;7657;50.140;7.076;2023-08-01T09:45:31;3.90;;;2.10;;
15112;SDS011;7657;50.140;7.076;2023-08-01T09:47:59;3.97;;;2.22;;
15112;SDS011;7657;50.140;7.076;2023-08-01T09:50:26;4.82;;;2.50;;
15112;SDS011;7657;50.140;7.076;2023-08-01T09:52:55;4.97;;;2.13;;
15112;SDS011;7657;50.140;7.076;2023-08-01T09:55:24;2.92;;;2.00;;
15112;SDS011;7657;50.140;7.076;2023-08-01T09:57:57;3.42;;;1.98;;
15112;SDS011;7657;50.140;7.076;2023-08-01T10:00:25;2.92;;;2.25;;
15112;SDS011;7657;50.140;7.076;2023-08-01T10:02:52;4.25;;;2.05;;
15112;SDS011;7657;50.140;7.076;2023-08-01T10:05:21;5.22;;;2.03;;
15112;SDS011;7657;50.140;7.076;2023-08-01T10:07:49;3.13;;;1.88;;
15112;SDS011;7657;50.140;7.076;2023-08-01T10:10:21;4.20;;;2.05;;
15112;SDS011;7657;50.140;7.076;2023-08-01T10:12:48;3.15;;;1.70;;
15112;SDS011;7657;50.140;7.076;2023-08-01T10:15:16;4.22;;;2.40;;
15112;SDS011;7657;50.140;7.076;2023-08-01T10:17:43;2.35;;;1.90;;
15112;SDS011;7657;50.140;7.076;2023-08-01T10:20:11;2.58;;;2.05;;
15112;SDS011;7657;50.140;7.076;2023-08-01T10:22:40;4.07;;;2.40;;
15112;SDS011;7657;50.140;7.076;2023-08-01T10:25:08;5.32;;;1.98;;
15112;SDS011;7657;50.140;7.076;2023-08-01T10:27:38;4.63;;;2.08;;
15112;SDS011;7657;50.140;7.076;2023-08-01T10:30:06;3.72;;;1.90;;
15112;SDS011;7657;50.140;7.076;2023-08-01T10:32:35;2.08;;;1.80;;
15112;SDS011;7657;50.140;7.076;2023-08-01T10:35:03;3.78;;;2.20;;
15112;SDS011;7657;50.140;7.076;2023-08-01T10:37:41;3.47;;;2.00;;
15112;SDS011;7657;50.140;7.076;2023-08-01T10:40:08;3.90;;;2.20;;
15112;SDS011;7657;50.140;7.076;2023-08-01T10:42:40;3.42;;;2.25;;
15112;SDS011;7657;50.140;7.076;2023-08-01T10:45:19;3.70;;;2.20;;
15112;SDS011;7657;50.140;7.076;2023-08-01T10:47:46;3.10;;;2.00;;
15112;SDS011;7657;50.140;7.076;2023-08-01T10:50:13;5.28;;;2.05;;
15112;SDS011;7657;50.140;7.076;2023-08-01T10:52:41;5.15;;;2.47;;
15112;SDS011;7657;50.140;7.076;2023-08-01T10:55:09;4.63;;;2.30;;
15112;SDS011;7657;50.140;7.076;2023-08-01T10:57:38;5.75;;;2.60;;
15112;SDS011;7657;50.140;7.076;2023-08-01T11:00:15;4.00;;;2.17;;
15112;SDS011;7657;50.140;7.076;2023-08-01T11:02:48;4.78;;;2.03;;
15112;SDS011;7657;50.140;7.076;2023-08-01T11:05:17;3.90;;;2.17;;
15112;SDS011;7657;50.140;7.076;2023-08-01T11:07:52;3.22;;;2.15;;
15112;SDS011;7657;50.140;7.076;2023-08-01T11:10:21;6.85;;;2.45;;
15112;SDS011;7657;50.140;7.076;2023-08-01T11:12:52;4.18;;;2.20;;
15112;SDS011;7657;50.140;7.076;2023-08-01T11:15:19;4.97;;;2.10;;
15112;SDS011;7657;50.140;7.076;2023-08-01T11:17:47;4.63;;;1.70;;
15112;SDS011;7657;50.140;7.076;2023-08-01T11:20:15;4.10;;;2.05;;
15112;SDS011;7657;50.140;7.076;2023-08-01T11:22:49;3.30;;;2.08;;
15112;SDS011;7657;50.140;7.076;2023-08-01T11:25:18;3.13;;;1.85;;
15112;SDS011;7657;50.140;7.076;2023-08-01T11:27:44;2.38;;;1.83;;
15112;SDS011;7657;50.140;7.076;2023-08-01T11:30:13;2.78;;;1.88;;
15112;SDS011;7657;50.140;7.076;2023-08-01T11:32:40;3.72;;;1.90;;
15112;SDS011;7657;50.140;7.076;2023-08-01T11:35:07;2.88;;;2.00;;
15112;SDS011;7657;50.140;7.076;2023-08-01T11:37:34;2.08;;;1.88;;
15112;SDS011;7657;50.140;7.076;2023-08-01T11:40:02;7.35;;;2.30;;
15112;SDS011;7657;50.140;7.076;2023-08-01T11:42:30;3.75;;;1.90;;
15112;SDS011;7657;50.140;7.076;2023-08-01T11:45:08;2.65;;;1.95;;
15112;SDS011;7657;50.140;7.076;2023-08-01T11:47:36;4.03;;;1.77;;
15112;SDS011;7657;50.140;7.076;2023-08-01T11:50:04;3.05;;;1.80;;
15112;SDS011;7657;50.140;7.076;2023-08-01T11:52:32;2.78;;;1.60;;
15112;SDS011;7657;50.140;7.076;2023-08-01T11:55:00;4.15;;;1.92;;
15112;SDS011;7657;50.140;7.076;2023-08-01T11:57:27;5.30;;;1.88;;
15112;SDS011;7657;50.140;7.076;2023-08-01T11:59:55;5.00;;;1.80;;
15112;SDS011;7657;50.140;7.076;2023-08-01T12:02:23;3.20;;;1.55;;
15112;SDS011;7657;50.140;7.076;2023-08-01T12:04:51;4.72;;;1.92;;
15112;SDS011;7657;50.140;7.076;2023-08-01T12:07:20;2.90;;;2.00;;
15112;SDS011;7657;50.140;7.076;2023-08-01T12:09:54;3.08;;;1.48;;
15112;SDS011;7657;50.140;7.076;2023-08-01T12:12:22;2.25;;;1.80;;
15112;SDS011;7657;50.140;7.076;2023-08-01T12:14:49;5.75;;;2.15;;
15112;SDS011;7657;50.140;7.076;2023-08-01T12:17:16;3.42;;;2.00;;
15112;SDS011;7657;50.140;7.076;2023-08-01T12:19:44;2.78;;;2.08;;
15112;SDS011;7657;50.140;7.076;2023-08-01T12:22:12;5.07;;;2.40;;
15112;SDS011;7657;50.140;7.076;2023-08-01T12:24:40;2.95;;;2.08;;
15112;SDS011;7657;50.140;7.076;2023-08-01T12:27:07;4.03;;;2.05;;
15112;SDS011;7657;50.140;7.076;2023-08-01T12:29:35;4.35;;;2.10;;
15112;SDS011;7657;50.140;7.076;2023-08-01T12:32:02;4.32;;;2.10;;
15112;SDS011;7657;50.140;7.076;2023-08-01T12:34:29;3.85;;;1.90;;
15112;SDS011;7657;50.140;7.076;2023-08-01T12:36:56;3.20;;;1.80;;
15112;SDS011;7657;50.140;7.076;2023-08-01T12:39:24;2.55;;;1.63;;
15112;SDS011;7657;50.140;7.076;2023-08-01T12:41:52;2.45;;;1.40;;
15112;SDS011;7657;50.140;7.076;2023-08-01T12:44:19;3.80;;;1.80;;
15112;SDS011;7657;50.140;7.076;2023-08-01T12:46:46;3.10;;;1.92;;
15112;SDS011;7657;50.140;7.076;2023-08-01T12:49:13;2.17;;;1.75;;
15112;SDS011;7657;50.140;7.076;2023-08-01T12:51:40;1.70;;;1.45;;
15112;SDS011;7657;50.140;7.076;2023-08-01T12:54:07;2.15;;;1.92;;
15112;SDS011;7657;50.140;7.076;2023-08-01T12:56:35;3.85;;;1.90;;
15112;SDS011;7657;50.140;7.076;2023-08-01T12:59:02;4.80;;;2.15;;
15112;SDS011;7657;50.140;7.076;2023-08-01T13:01:29;4.82;;;2.53;;
15112;SDS011;7657;50.140;7.076;2023-08-01T13:03:55;1.95;;;1.70;;
15112;SDS011;7657;50.140;7.076;2023-08-01T13:06:22;4.63;;;1.50;;
15112;SDS011;7657;50.140;7.076;2023-08-01T13:08:49;2.42;;;1.52;;
15112;SDS011;7657;50.140;7.076;2023-08-01T13:11:16;1.95;;;1.52;;
15112;SDS011;7657;50.140;7.076;2023-08-01T13:13:44;2.42;;;1.40;;
15112;SDS011;7657;50.140;7.076;2023-08-01T13:16:12;3.70;;;1.75;;
15112;SDS011;7657;50.140;7.076;2023-08-01T13:18:39;3.25;;;1.58;;
15112;SDS011;7657;50.140;7.076;2023-08-01T13:21:09;7.55;;;2.00;;
15112;SDS011;7657;50.140;7.076;2023-08-01T13:23:36;2.72;;;1.50;;
15112;SDS011;7657;50.140;7.076;2023-08-01T13:26:03;2.83;;;1.33;;
15112;SDS011;7657;50.140;7.076;2023-08-01T13:28:30;1.90;;;1.58;;
15112;SDS011;7657;50.140;7.076;2023-08-01T13:30:58;1.92;;;1.60;;
15112;SDS011;7657;50.140;7.076;2023-08-01T13:33:25;2.55;;;1.27;;
15112;SDS011;7657;50.140;7.076;2023-08-01T13:35:52;3.90;;;1.40;;
15112;SDS011;7657;50.140;7.076;2023-08-01T13:38:19;1.20;;;1.08;;
15112;SDS011;7657;50.140;7.076;2023-08-01T13:40:46;2.35;;;1.10;;
15112;SDS011;7657;50.140;7.076;2023-08-01T13:43:13;3.00;;;1.50;;
15112;SDS011;7657;50.140;7.076;2023-08-01T13:45:40;3.13;;;1.55;;
15112;SDS011;7657;50.140;7.076;2023-08-01T13:48:09;1.20;;;1.05;;
15112;SDS011;7657;50.140;7.076;2023-08-01T13:50:35;4.72;;;2.15;;
15112;SDS011;7657;50.140;7.076;2023-08-01T13:53:02;1.85;;;1.13;;
15112;SDS011;7657;50.140;7.076;2023-08-01T13:55:32;1.55;;;0.98;;
15112;SDS011;7657;50.140;7.076;2023-08-01T13:57:59;2.55;;;1.17;;
15112;SDS011;7657;50.140;7.076;2023-08-01T14:00:26;1.90;;;1.40;;
15112;SDS011;7657;50.140;7.076;2023-08-01T14:02:53;2.30;;;1.15;;
15112;SDS011;7657;50.140;7.076;2023-08-01T14:05:24;1.98;;;1.13;;
15112;SDS011;7657;50.140;7.076;2023-08-01T14:07:51;2.65;;;1.30;;
15112;SDS011;7657;50.140;7.076;2023-08-01T14:10:18;1.90;;;1.40;;
15112;SDS011;7657;50.140;7.076;2023-08-01T14:12:44;1.75;;;1.02;;
15112;SDS011;7657;50.140;7.076;2023-08-01T14:15:11;2.17;;;0.90;;
15112;SDS011;7657;50.140;7.076;2023-08-01T14:17:38;1.75;;;1.00;;
15112;SDS011;7657;50.140;7.076;2023-08-01T14:20:06;1.83;;;1.10;;
15112;SDS011;7657;50.140;7.076;2023-08-01T14:22:35;1.00;;;0.90;;
15112;SDS011;7657;50.140;7.076;2023-08-01T14:25:03;1.00;;;0.80;;
15112;SDS011;7657;50.140;7.076;2023-08-01T14:27:30;1.88;;;0.93;;
15112;SDS011;7657;50.140;7.076;2023-08-01T14:29:57;1.25;;;0.90;;
15112;SDS011;7657;50.140;7.076;2023-08-01T14:32:25;2.08;;;0.88;;
15112;SDS011;7657;50.140;7.076;2023-08-01T14:34:51;3.05;;;0.90;;
15112;SDS011;7657;50.140;7.076;2023-08-01T14:37:18;2.08;;;0.90;;
15112;SDS011;7657;50.140;7.076;2023-08-01T14:39:50;2.47;;;1.20;;
15112;SDS011;7657;50.140;7.076;2023-08-01T14:42:17;1.98;;;0.93;;
15112;SDS011;7657;50.140;7.076;2023-08-01T14:44:44;1.05;;;0.90;;
15112;SDS011;7657;50.140;7.076;2023-08-01T14:47:11;3.83;;;1.25;;
15112;SDS011;7657;50.140;7.076;2023-08-01T14:49:37;3.15;;;1.08;;
15112;SDS011;7657;50.140;7.076;2023-08-01T14:52:05;1.48;;;1.10;;
15112;SDS011;7657;50.140;7.076;2023-08-01T14:54:33;1.27;;;1.17;;
15112;SDS011;7657;50.140;7.076;2023-08-01T14:57:02;1.00;;;0.73;;
15112;SDS011;7657;50.140;7.076;2023-08-01T14:59:29;1.50;;;0.90;;
15112;SDS011;7657;50.140;7.076;2023-08-01T15:01:57;1.60;;;1.10;;